createdAt,value
2022-11-24T00:01:23.209Z,100.00
2022-11-24T00:03:58.267Z,100.00
2022-11-24T00:06:26.322Z,100.00
2022-11-24T00:08:54.489Z,100.00
2022-11-24T00:11:28.166Z,100.00
2022-11-24T00:13:55.614Z,100.00
2022-11-24T00:16:35.136Z,100.00
2022-11-24T00:19:06.204Z,100.00
2022-11-24T00:21:33.183Z,100.00
2022-11-24T00:24:00.974Z,100.00
2022-11-24T00:26:32.008Z,100.00
2022-11-24T00:29:05.717Z,100.00
2022-11-24T00:31:37.209Z,100.00
2022-11-24T00:34:10.510Z,100.00
2022-11-24T00:36:38.518Z,100.00
2022-11-24T00:39:10.340Z,100.00
2022-11-24T00:41:38.052Z,100.00
2022-11-24T00:44:05.528Z,100.00
2022-11-24T00:46:32.668Z,100.00
2022-11-24T00:49:02.838Z,100.00
2022-11-24T00:51:30.867Z,100.00
2022-11-24T00:53:58.948Z,100.00
2022-11-24T00:56:27.737Z,100.00
2022-11-24T00:58:55.269Z,100.00
2022-11-24T01:01:29.178Z,100.00
2022-11-24T01:03:56.688Z,100.00
2022-11-24T01:06:26.447Z,100.00
2022-11-24T01:08:54.295Z,100.00
2022-11-24T01:11:28.273Z,100.00
2022-11-24T01:13:59.020Z,100.00
2022-11-24T01:16:33.286Z,100.00
2022-11-24T01:19:01.442Z,100.00
2022-11-24T01:21:28.456Z,100.00
2022-11-24T01:23:55.486Z,100.00
2022-11-24T01:26:23.461Z,100.00
2022-11-24T01:28:58.382Z,100.00
2022-11-24T01:31:26.737Z,100.00
2022-11-24T01:33:54.268Z,100.00
2022-11-24T01:36:22.246Z,100.00
2022-11-24T01:38:49.623Z,100.00
2022-11-24T01:41:21.627Z,100.00
2022-11-24T01:43:49.806Z,100.00
2022-11-24T01:46:46.461Z,100.00
2022-11-24T01:49:23.221Z,100.00
2022-11-24T01:52:20.228Z,100.00
2022-11-24T01:55:00.244Z,100.00
2022-11-24T01:57:37.046Z,100.00
2022-11-24T02:00:10.998Z,100.00
2022-11-24T02:02:38.637Z,100.00
2022-11-24T02:05:25.688Z,100.00
2022-11-24T02:07:56.698Z,100.00
2022-11-24T02:10:23.997Z,100.00
2022-11-24T02:12:55.058Z,100.00
2022-11-24T02:15:22.850Z,100.00
2022-11-24T02:17:49.973Z,100.00
2022-11-24T02:20:18.101Z,100.00
2022-11-24T02:23:24.446Z,100.00
2022-11-24T02:26:28.734Z,100.00
2022-11-24T02:28:56.028Z,100.00
2022-11-24T02:31:23.076Z,100.00
2022-11-24T02:33:51.219Z,100.00
2022-11-24T02:36:18.349Z,100.00
2022-11-24T02:38:45.408Z,100.00
2022-11-24T02:41:20.011Z,100.00
2022-11-24T02:43:55.760Z,100.00
2022-11-24T02:46:23.540Z,100.00
2022-11-24T02:48:50.686Z,100.00
2022-11-24T02:51:18.104Z,100.00
2022-11-24T02:53:45.678Z,100.00
2022-11-24T02:56:12.927Z,100.00
2022-11-24T02:58:40.056Z,100.00
2022-11-24T03:01:07.303Z,100.00
2022-11-24T03:03:34.365Z,100.00
2022-11-24T03:06:01.368Z,100.00
2022-11-24T03:08:28.386Z,100.00
2022-11-24T03:10:55.531Z,100.00
2022-11-24T03:13:22.555Z,100.00
2022-11-24T03:15:49.689Z,100.00
2022-11-24T03:18:16.778Z,100.00
2022-11-24T03:20:44.324Z,100.00
2022-11-24T03:23:11.459Z,100.00
2022-11-24T03:25:38.553Z,100.00
2022-11-24T03:28:05.805Z,100.00
2022-11-24T03:30:32.839Z,100.00
2022-11-24T03:32:59.940Z,100.00
2022-11-24T03:35:27.046Z,100.00
2022-11-24T03:37:54.062Z,100.00
2022-11-24T03:40:21.121Z,100.00
2022-11-24T03:42:48.137Z,100.00
2022-11-24T03:45:45.641Z,100.00
2022-11-24T03:48:02.198Z,100.00
2022-11-24T03:50:29.345Z,100.00
2022-11-24T03:52:56.403Z,100.00
2022-11-24T03:55:23.388Z,100.00
2022-11-24T03:57:50.414Z,100.00
2022-11-24T04:00:18.027Z,100.00
2022-11-24T04:02:45.087Z,100.00
2022-11-24T04:05:12.219Z,100.00
2022-11-24T04:07:39.326Z,100.00
2022-11-24T04:10:07.451Z,100.00
2022-11-24T04:12:46.502Z,100.00
2022-11-24T04:15:17.883Z,100.00
2022-11-24T04:17:46.551Z,100.00
2022-11-24T04:20:14.255Z,100.00
2022-11-24T04:22:41.658Z,100.00
2022-11-24T04:25:10.321Z,100.00
2022-11-24T04:27:38.709Z,100.00
2022-11-24T04:30:07.573Z,100.00
2022-11-24T04:32:34.797Z,100.00
2022-11-24T04:35:01.840Z,100.00
2022-11-24T04:37:28.863Z,100.00
2022-11-24T04:39:55.864Z,100.00
2022-11-24T04:42:22.887Z,100.00
2022-11-24T04:44:50.328Z,100.00
2022-11-24T04:47:25.615Z,100.00
2022-11-24T04:49:53.856Z,100.00
2022-11-24T04:52:23.080Z,100.00
2022-11-24T04:54:50.360Z,100.00
2022-11-24T04:57:19.536Z,100.00
2022-11-24T04:59:46.727Z,100.00
2022-11-24T05:02:14.139Z,100.00
2022-11-24T05:04:41.356Z,100.00
2022-11-24T05:07:17.987Z,100.00
2022-11-24T05:10:22.110Z,100.00
2022-11-24T05:12:59.674Z,100.00
2022-11-24T05:15:27.184Z,100.00
2022-11-24T05:17:54.358Z,100.00
2022-11-24T05:20:21.596Z,99.72
2022-11-24T05:22:48.624Z,99.23
2022-11-24T05:25:15.922Z,99.73
2022-11-24T05:27:43.259Z,99.81
2022-11-24T05:30:11.534Z,100.00
2022-11-24T05:32:38.516Z,100.00
2022-11-24T05:35:06.186Z,100.00
2022-11-24T05:37:33.145Z,100.00
2022-11-24T05:40:00.112Z,100.00
2022-11-24T05:42:47.089Z,100.00
2022-11-24T05:45:18.940Z,100.00
2022-11-24T05:47:47.063Z,100.00
2022-11-24T05:50:17.190Z,100.00
2022-11-24T05:52:44.496Z,100.00
2022-11-24T05:55:13.425Z,100.00
2022-11-24T05:57:40.788Z,100.00
2022-11-24T06:00:09.428Z,100.00
2022-11-24T06:02:36.516Z,100.00
2022-11-24T06:05:03.715Z,100.00
2022-11-24T06:07:30.751Z,100.00
2022-11-24T06:09:57.716Z,100.00
2022-11-24T06:12:24.657Z,100.00
2022-11-24T06:14:51.793Z,99.92
2022-11-24T06:17:18.778Z,100.00
2022-11-24T06:19:47.931Z,100.00
2022-11-24T06:22:15.023Z,100.00
2022-11-24T06:24:42.028Z,100.00
2022-11-24T06:27:09.025Z,100.00
2022-11-24T06:29:35.950Z,100.00
2022-11-24T06:32:02.937Z,100.00
2022-11-24T06:34:29.954Z,100.00
2022-11-24T06:36:57.191Z,100.00
2022-11-24T06:39:24.126Z,99.38
2022-11-24T06:41:51.616Z,100.00
2022-11-24T06:44:19.157Z,100.00
2022-11-24T06:46:46.298Z,100.00
2022-11-24T06:49:13.291Z,100.00
2022-11-24T06:51:40.268Z,100.00
2022-11-24T06:54:09.029Z,100.00
2022-11-24T06:56:36.647Z,99.63
2022-11-24T06:59:03.709Z,100.00
2022-11-24T07:01:30.824Z,99.91
2022-11-24T07:03:58.852Z,99.63
2022-11-24T07:06:27.013Z,100.00
2022-11-24T07:08:54.012Z,100.00
2022-11-24T07:11:23.773Z,100.00
2022-11-24T07:13:55.081Z,97.64
2022-11-24T07:16:27.399Z,97.88
2022-11-24T07:18:55.599Z,98.57
2022-11-24T07:21:24.629Z,98.39
2022-11-24T07:23:54.361Z,97.44
2022-11-24T07:26:22.505Z,97.34
2022-11-24T07:28:49.773Z,96.98
2022-11-24T07:31:20.247Z,97.35
2022-11-24T07:33:52.472Z,96.78
2022-11-24T07:36:20.314Z,96.48
2022-11-24T07:38:48.077Z,96.07
2022-11-24T07:41:18.148Z,95.83
2022-11-24T07:43:45.163Z,97.14
2022-11-24T07:46:14.746Z,97.67
2022-11-24T07:48:41.713Z,97.67
2022-11-24T07:51:09.749Z,96.96
2022-11-24T07:53:37.686Z,96.43
2022-11-24T07:56:06.336Z,97.26
2022-11-24T07:58:36.088Z,96.81
2022-11-24T08:01:17.949Z,96.72
2022-11-24T08:03:46.329Z,96.28
2022-11-24T08:06:25.450Z,95.06
2022-11-24T08:08:55.220Z,96.37
2022-11-24T08:11:22.691Z,95.05
2022-11-24T08:13:49.732Z,95.19
2022-11-24T08:16:19.841Z,95.53
2022-11-24T08:18:54.990Z,96.15
2022-11-24T08:21:23.605Z,93.79
2022-11-24T08:23:55.196Z,95.12
2022-11-24T08:26:23.017Z,95.08
2022-11-24T08:28:56.045Z,95.70
2022-11-24T08:31:23.215Z,94.67
2022-11-24T08:33:50.233Z,95.07
2022-11-24T08:36:19.339Z,95.25
2022-11-24T08:38:48.954Z,95.37
2022-11-24T08:41:17.603Z,94.57
2022-11-24T08:43:44.936Z,94.65
2022-11-24T08:46:17.253Z,94.83
2022-11-24T08:48:50.141Z,95.52
2022-11-24T08:51:20.836Z,96.17
2022-11-24T08:53:47.756Z,96.46
2022-11-24T08:56:15.230Z,96.01
2022-11-24T08:58:42.353Z,95.10
2022-11-24T09:01:14.651Z,95.05
2022-11-24T09:03:50.051Z,94.93
2022-11-24T09:06:24.909Z,94.47
2022-11-24T09:08:54.579Z,94.29
2022-11-24T09:11:22.321Z,93.70
2022-11-24T09:13:49.622Z,93.39
2022-11-24T09:16:21.818Z,93.27
2022-11-24T09:18:54.691Z,93.45
2022-11-24T09:21:22.625Z,93.94
2022-11-24T09:23:51.913Z,93.84
2022-11-24T09:26:32.246Z,93.38
2022-11-24T09:29:01.173Z,93.00
2022-11-24T09:31:39.233Z,94.41
2022-11-24T09:34:15.153Z,93.86
2022-11-24T09:36:43.022Z,93.50
2022-11-24T09:39:11.396Z,93.46
2022-11-24T09:42:15.894Z,92.15
2022-11-24T09:44:58.204Z,92.99
2022-11-24T09:48:03.615Z,93.61
2022-11-24T09:50:36.400Z,93.18
2022-11-24T09:53:21.494Z,93.19
2022-11-24T09:55:51.957Z,94.47
2022-11-24T09:58:48.541Z,94.89
2022-11-24T10:01:24.489Z,94.24
2022-11-24T10:03:53.380Z,93.29
2022-11-24T10:06:34.770Z,94.64
2022-11-24T10:09:12.980Z,94.24
2022-11-24T10:12:16.371Z,93.74
2022-11-24T10:15:22.527Z,94.60
2022-11-24T10:18:05.099Z,93.72
2022-11-24T10:21:11.919Z,93.42
2022-11-24T10:24:26.033Z,92.05
2022-11-24T10:27:22.039Z,90.91
2022-11-24T10:29:52.877Z,92.17
2022-11-24T10:32:33.489Z,91.68
2022-11-24T10:35:35.180Z,91.57
2022-11-24T10:38:41.191Z,91.21
2022-11-24T10:41:24.227Z,90.51
2022-11-24T10:43:52.788Z,88.60
2022-11-24T10:46:27.210Z,89.53
2022-11-24T10:49:00.898Z,88.88
2022-11-24T10:52:11.011Z,90.57
2022-11-24T10:55:01.456Z,91.79
2022-11-24T10:57:36.385Z,90.32
2022-11-24T11:00:20.946Z,90.89
2022-11-24T11:03:17.505Z,91.19
2022-11-24T11:06:24.421Z,91.26
2022-11-24T11:09:14.412Z,90.83
2022-11-24T11:11:42.967Z,89.73
2022-11-24T11:14:12.918Z,89.88
2022-11-24T11:16:55.776Z,91.29
2022-11-24T11:19:54.104Z,90.66
2022-11-24T11:22:35.400Z,90.63
2022-11-24T11:25:20.038Z,92.24
2022-11-24T11:27:48.355Z,93.21
2022-11-24T11:36:16.454Z,91.32
2022-11-24T11:38:45.349Z,90.83
2022-11-24T11:41:24.324Z,92.31
2022-11-24T11:44:04.654Z,90.60
2022-11-24T11:46:32.708Z,91.57
2022-11-24T11:49:00.023Z,91.40
2022-11-24T11:52:09.039Z,91.98
2022-11-24T11:55:08.503Z,90.99
2022-11-24T11:58:00.373Z,91.15
2022-11-24T12:00:28.030Z,90.50
2022-11-24T12:03:19.645Z,89.40
2022-11-24T12:06:26.913Z,89.33
2022-11-24T12:09:29.307Z,90.53
2022-11-24T12:12:36.663Z,90.21
2022-11-24T12:15:18.176Z,90.33
2022-11-24T12:18:55.380Z,90.00
2022-11-24T12:21:38.913Z,89.87
2022-11-24T12:24:40.452Z,89.68
2022-11-24T12:27:51.381Z,89.81
2022-11-24T12:30:21.901Z,89.68
2022-11-24T12:33:50.575Z,89.13
2022-11-24T12:36:53.755Z,89.22
2022-11-24T12:39:28.460Z,89.52
2022-11-24T12:42:30.306Z,89.32
2022-11-24T12:45:08.908Z,90.58
2022-11-24T12:48:39.372Z,90.05
2022-11-24T12:51:16.923Z,89.56
2022-11-24T12:53:47.658Z,89.98
2022-11-24T12:56:17.452Z,90.80
2022-11-24T12:59:08.908Z,91.18
2022-11-24T13:01:47.572Z,91.13
2022-11-24T13:04:50.398Z,90.09
2022-11-24T13:07:45.017Z,90.67
2022-11-24T13:10:53.539Z,90.12
2022-11-24T13:13:15.655Z,90.04
2022-11-24T13:16:34.703Z,89.53
2022-11-24T13:18:58.331Z,89.66
2022-11-24T13:21:35.830Z,89.91
2022-11-24T13:24:30.739Z,89.70
2022-11-24T13:27:16.214Z,88.69
2022-11-24T13:29:51.259Z,87.23
2022-11-24T13:32:21.253Z,88.38
2022-11-24T13:34:54.884Z,89.08
2022-11-24T13:37:34.857Z,89.41
2022-11-24T13:40:11.764Z,89.24
2022-11-24T13:43:01.419Z,89.75
2022-11-24T13:45:41.042Z,89.75
2022-11-24T13:48:20.795Z,89.61
2022-11-24T13:50:51.076Z,89.25
2022-11-24T13:53:43.970Z,88.79
2022-11-24T13:56:14.066Z,89.22
2022-11-24T13:58:53.765Z,89.35
2022-11-24T14:01:35.961Z,89.28
2022-11-24T14:04:30.153Z,89.64
2022-11-24T14:07:08.788Z,89.17
2022-11-24T14:09:45.932Z,88.83
2022-11-24T14:12:22.941Z,89.76
2022-11-24T14:14:52.975Z,89.62
2022-11-24T14:17:24.604Z,90.10
2022-11-24T14:19:54.594Z,90.37
2022-11-24T14:22:23.435Z,89.73
2022-11-24T14:25:02.193Z,89.38
2022-11-24T14:27:36.978Z,89.03
2022-11-24T14:30:25.474Z,89.30
2022-11-24T14:33:01.028Z,89.90
2022-11-24T14:35:34.728Z,89.52
2022-11-24T14:38:04.917Z,89.51
2022-11-24T14:40:55.811Z,89.90
2022-11-24T14:43:33.398Z,90.68
2022-11-24T14:46:18.058Z,92.44
2022-11-24T14:48:53.028Z,92.93
2022-11-24T14:51:30.604Z,94.19
2022-11-24T14:54:07.113Z,91.30
2022-11-24T14:56:39.052Z,90.90
2022-11-24T14:59:24.246Z,92.63
2022-11-24T15:01:51.382Z,92.85
2022-11-24T15:04:46.699Z,92.16
2022-11-24T15:07:29.590Z,92.47
2022-11-24T15:10:02.580Z,92.74
2022-11-24T15:12:48.112Z,93.02
2022-11-24T15:15:15.173Z,92.62
2022-11-24T15:17:58.914Z,92.41
2022-11-24T15:20:36.170Z,92.40
2022-11-24T15:23:30.993Z,91.80
2022-11-24T15:26:01.895Z,92.51
2022-11-24T15:28:31.296Z,91.98
2022-11-24T15:31:09.888Z,92.88
2022-11-24T15:33:37.116Z,92.06
2022-11-24T15:36:04.786Z,92.62
2022-11-24T15:38:32.089Z,92.57
2022-11-24T15:41:01.227Z,92.37
2022-11-24T15:43:38.741Z,92.24
2022-11-24T15:46:08.247Z,92.21
2022-11-24T15:48:35.386Z,92.06
2022-11-24T15:51:08.049Z,91.57
2022-11-24T15:53:42.977Z,92.12
2022-11-24T15:56:19.382Z,92.23
2022-11-24T15:58:46.356Z,92.22
2022-11-24T16:01:13.454Z,91.73
2022-11-24T16:03:48.871Z,92.18
2022-11-24T16:06:24.784Z,91.94
2022-11-24T16:08:54.003Z,91.51
2022-11-24T16:11:21.964Z,91.38
2022-11-24T16:13:52.840Z,91.92
2022-11-24T16:16:23.044Z,92.02
2022-11-24T16:18:50.637Z,93.00
2022-11-24T16:21:17.736Z,92.62
2022-11-24T16:23:45.631Z,93.82
2022-11-24T16:26:12.554Z,93.82
2022-11-24T16:28:39.451Z,93.20
2022-11-24T16:31:06.429Z,93.41
2022-11-24T16:33:33.450Z,92.71
2022-11-24T16:36:00.365Z,93.34
2022-11-24T16:38:27.282Z,94.12
2022-11-24T16:40:56.411Z,94.05
2022-11-24T16:43:24.688Z,93.96
2022-11-24T16:46:22.890Z,94.02
2022-11-24T16:48:53.738Z,93.70
2022-11-24T16:51:22.841Z,93.72
2022-11-24T16:53:58.714Z,92.70
2022-11-24T16:56:29.597Z,92.99
2022-11-24T16:58:56.823Z,93.30
2022-11-24T17:01:24.141Z,94.04
2022-11-24T17:03:51.365Z,94.09
2022-11-24T17:06:19.126Z,94.04
2022-11-24T17:08:47.471Z,94.44
2022-11-24T17:11:20.750Z,94.49
2022-11-24T17:13:49.217Z,94.29
2022-11-24T17:16:19.849Z,94.53
2022-11-24T17:18:47.354Z,94.15
2022-11-24T17:21:18.176Z,93.99
2022-11-24T17:23:45.518Z,93.74
2022-11-24T17:26:17.782Z,94.44
2022-11-24T17:28:45.190Z,94.58
2022-11-24T17:31:37.194Z,94.16
2022-11-24T17:34:05.754Z,94.96
2022-11-24T17:36:34.729Z,94.53
2022-11-24T17:39:07.137Z,95.21
2022-11-24T17:41:34.544Z,95.42
2022-11-24T17:44:01.715Z,95.33
2022-11-24T17:46:30.258Z,96.54
2022-11-24T17:48:57.823Z,96.42
2022-11-24T17:51:26.677Z,95.95
2022-11-24T17:53:55.436Z,96.53
2022-11-24T17:56:27.866Z,96.62
2022-11-24T17:58:57.409Z,96.96
2022-11-24T18:01:26.134Z,97.05
2022-11-24T18:03:54.281Z,97.16
2022-11-24T18:06:25.096Z,96.69
2022-11-24T18:08:54.074Z,96.83
2022-11-24T18:11:30.470Z,96.86
2022-11-24T18:14:01.943Z,96.49
2022-11-24T18:16:34.367Z,96.77
2022-11-24T18:19:08.781Z,96.65
2022-11-24T18:21:41.051Z,96.13
2022-11-24T18:24:10.340Z,96.39
2022-11-24T18:26:38.859Z,97.33
2022-11-24T18:29:05.889Z,97.38
2022-11-24T18:31:35.508Z,98.20
2022-11-24T18:34:05.265Z,98.30
2022-11-24T18:36:33.346Z,98.55
2022-11-24T18:39:06.562Z,98.76
2022-11-24T18:41:33.926Z,99.70
2022-11-24T18:44:08.014Z,100.00
2022-11-24T18:46:35.725Z,100.00
2022-11-24T18:49:03.299Z,100.00
2022-11-24T18:51:30.415Z,100.00
2022-11-24T18:54:02.195Z,100.00
2022-11-24T18:56:29.183Z,100.00
2022-11-24T18:58:57.032Z,100.00
2022-11-24T19:01:27.841Z,100.00
2022-11-24T19:03:58.645Z,100.00
2022-11-24T19:06:35.742Z,100.00
2022-11-24T19:09:15.656Z,100.00
2022-11-24T19:11:45.383Z,99.25
2022-11-24T19:14:18.412Z,99.54
2022-11-24T19:16:48.016Z,99.50
2022-11-24T19:19:17.035Z,99.68
2022-11-24T19:21:44.715Z,99.29
2022-11-24T19:24:13.232Z,98.23
2022-11-24T19:26:40.616Z,98.76
2022-11-24T19:29:08.559Z,98.97
2022-11-24T19:31:36.139Z,99.09
2022-11-24T19:34:05.347Z,99.25
2022-11-24T19:36:32.707Z,99.13
2022-11-24T19:39:00.065Z,99.82
2022-11-24T19:41:30.093Z,99.87
2022-11-24T19:43:58.490Z,100.00
2022-11-24T19:46:28.009Z,100.00
2022-11-24T19:48:59.507Z,99.55
2022-11-24T19:51:30.937Z,99.61
2022-11-24T19:53:58.432Z,100.00
2022-11-24T19:56:28.203Z,99.88
2022-11-24T19:58:56.459Z,100.00
2022-11-24T20:01:33.688Z,100.00
2022-11-24T20:04:12.555Z,100.00
2022-11-24T20:06:42.799Z,100.00
2022-11-24T20:09:12.724Z,100.00
2022-11-24T20:11:40.292Z,100.00
2022-11-24T20:14:09.730Z,100.00
2022-11-24T20:16:36.862Z,100.00
2022-11-24T20:19:07.860Z,100.00
2022-11-24T20:21:37.287Z,100.00
2022-11-24T20:24:07.906Z,100.00
2022-11-24T20:26:38.622Z,100.00
2022-11-24T20:29:06.432Z,100.00
2022-11-24T20:31:38.157Z,100.00
2022-11-24T20:34:07.153Z,100.00
2022-11-24T20:36:36.713Z,100.00
2022-11-24T20:39:09.511Z,100.00
2022-11-24T20:41:39.641Z,100.00
2022-11-24T20:44:11.308Z,100.00
2022-11-24T20:46:40.180Z,100.00
2022-11-24T20:49:10.396Z,99.89
2022-11-24T20:51:39.819Z,99.32
2022-11-24T20:54:09.027Z,99.75
2022-11-24T20:56:42.195Z,99.37
2022-11-24T20:59:22.645Z,99.27
2022-11-24T21:01:51.301Z,99.99
2022-11-24T21:04:22.586Z,99.56
2022-11-24T21:06:50.249Z,100.00
2022-11-24T21:09:18.273Z,99.88
2022-11-24T21:11:45.363Z,99.11
2022-11-24T21:14:12.946Z,98.70
2022-11-24T21:16:42.109Z,98.21
2022-11-24T21:19:14.812Z,98.29
2022-11-24T21:21:43.087Z,98.03
2022-11-24T21:24:16.403Z,98.15
2022-11-24T21:26:47.503Z,98.50
2022-11-24T21:29:17.323Z,98.27
2022-11-24T21:31:44.351Z,97.74
2022-11-24T21:34:16.064Z,97.28
2022-11-24T21:36:45.150Z,97.91
2022-11-24T21:39:14.792Z,98.35
2022-11-24T21:41:42.755Z,97.96
2022-11-24T21:44:12.902Z,97.84
2022-11-24T21:46:45.107Z,98.21
2022-11-24T21:49:16.457Z,97.87
2022-11-24T21:51:43.334Z,98.03
2022-11-24T21:54:10.264Z,97.98
2022-11-24T21:56:37.251Z,98.43
2022-11-24T21:59:04.210Z,97.98
2022-11-24T22:01:31.148Z,97.53
2022-11-24T22:03:58.406Z,98.04
2022-11-24T22:06:25.357Z,98.53
2022-11-24T22:08:52.513Z,98.28
2022-11-24T22:11:25.099Z,98.44
2022-11-24T22:13:52.649Z,98.70
2022-11-24T22:16:23.319Z,98.12
2022-11-24T22:18:51.052Z,98.19
2022-11-24T22:21:24.309Z,98.53
2022-11-24T22:23:52.751Z,98.07
2022-11-24T22:26:22.434Z,98.36
2022-11-24T22:28:50.126Z,98.52
2022-11-24T22:31:26.882Z,98.60
2022-11-24T22:33:55.926Z,98.84
2022-11-24T22:36:26.161Z,98.78
2022-11-24T22:38:59.211Z,98.93
2022-11-24T22:41:26.426Z,99.28
2022-11-24T22:43:54.232Z,99.39
2022-11-24T22:46:24.689Z,98.96
2022-11-24T22:48:53.021Z,99.45
2022-11-24T22:51:24.087Z,98.94
2022-11-24T22:53:55.463Z,98.26
2022-11-24T22:56:23.052Z,98.67
2022-11-24T22:58:50.680Z,99.67
2022-11-24T23:01:23.163Z,99.37
2022-11-24T23:03:51.153Z,98.65
2022-11-24T23:06:21.432Z,98.86
2022-11-24T23:08:49.619Z,99.07
2022-11-24T23:11:25.857Z,99.14
2022-11-24T23:14:00.327Z,99.15
2022-11-24T23:16:28.894Z,99.87
2022-11-24T23:18:56.402Z,99.58
2022-11-24T23:21:36.489Z,99.29
2022-11-24T23:24:04.944Z,100.00
2022-11-24T23:26:39.359Z,99.67
2022-11-24T23:29:06.904Z,100.00
2022-11-24T23:31:34.461Z,100.00
2022-11-24T23:34:03.877Z,99.69
2022-11-24T23:36:32.327Z,100.00
2022-11-24T23:39:14.413Z,100.00
2022-11-24T23:41:41.587Z,100.00
2022-11-24T23:44:09.081Z,100.00
2022-11-24T23:46:36.244Z,99.90
2022-11-24T23:49:03.313Z,99.60
2022-11-24T23:51:32.789Z,99.70
2022-11-24T23:54:00.625Z,99.56
2022-11-24T23:56:32.557Z,100.00
2022-11-24T23:59:04.546Z,100.00
